Latest Weather Observations for Point Perpendicular

IDN60801

Issued at 3:52 pm EDT Monday 19 November 2018 (issued every 10 minutes, with the page automatically refreshed every 10 minutes)

About weather observations | Map of weather stations | Latest weather observations for NSW | Other Formats
Station Details ID: 068151 Name: POINT PERPENDICULAR AWS Lat: -35.09 Lon: 150.80 Height: 85.0 m
Data from the previous 72 hours. | See also: Recent months at Point Perpendicular
Date/Time
EDT
Temp
°C
App
Temp
°C
Dew
Point
°C
Rel
Hum
%
Delta-T
°C
Wind Press
QNH
hPa
Press
MSL
hPa
Rain since
9am
mm
Dir  Spd
km/h
Gust
km/h
Spd
kts
Gust
kts
19/03:30pm 20.5 17.5 12.0 58 4.8 ENE 19 32 10 17 1018.6 1018.4 0.0
19/03:00pm 20.1 17.5 12.1 60 4.5 ENE 17 26 9 14 1018.9 1018.7 0.0
19/02:30pm 19.8 16.8 12.1 61 4.3 E 19 26 10 14 1019.4 1019.2 0.0
19/02:00pm 19.6 16.9 12.8 65 3.8 E 19 24 10 13 1019.7 1019.5 0.0
19/01:30pm 20.0 18.3 13.5 66 3.7 E 15 20 8 11 1020.1 1019.9 0.0
19/01:00pm 19.6 18.0 13.8 69 3.3 ESE 15 20 8 11 1020.2 1020.0 0.0
19/12:30pm 19.5 17.6 14.3 72 3.0 ESE 17 22 9 12 1020.6 1020.4 0.0
19/12:00pm 19.3 17.5 13.3 68 3.4 SE 15 22 8 12 1021.2 1021.0 0.0
19/11:30am 19.2 17.8 13.4 69 3.3 SE 13 19 7 10 1021.5 1021.3 0.0
19/11:00am 19.8 18.4 14.4 71 3.1 SE 15 19 8 10 1021.8 1021.6 0.0
19/10:30am 19.3 18.1 15.0 76 2.5 S 15 22 8 12 1022.2 1022.0 0.0
19/10:00am 18.8 18.1 14.3 75 2.6 S 11 17 6 9 1022.5 1022.3 0.0
19/09:30am 18.7 18.0 14.4 76 2.5 SSE 11 17 6 9 1022.6 1022.4 0.0
19/09:00am 17.8 17.7 13.9 78 2.2 SE 7 11 4 6 1022.7 1022.5 0.0
19/08:30am 17.4 17.3 13.3 77 2.3 S 6 9 3 5 1022.6 1022.4 0.0
19/08:00am 17.1 17.0 13.2 78 2.2 SSW 6 9 3 5 1022.5 1022.3 0.0
19/07:30am 16.8 16.1 13.1 79 2.1 SSW 9 11 5 6 1022.1 1021.9 0.0
19/07:00am 16.3 16.4 12.7 79 2.0 SW 4 4 2 2 1022.0 1021.8 0.0
19/06:30am 16.0 16.4 12.4 79 2.0 WSW 2 4 1 2 1022.0 1021.8 0.0
19/06:00am 15.5 15.8 12.3 81 1.7 WSW 2 4 1 2 1021.9 1021.7 0.0
19/05:30am 15.6 15.6 12.4 81 1.8 WSW 4 6 2 3 1021.6 1021.4 0.0
19/05:00am 15.5 15.5 12.4 82 1.7 WSW 4 7 2 4 1021.6 1021.4 0.0
19/04:30am 15.2 15.4 13.2 88 1.1 SW 4 7 2 4 1021.6 1021.4 0.0
19/04:00am 15.1 16.1 13.1 88 1.1 CALM 0 2 0 1 1021.6 1021.4 0.0
19/03:30am 15.5 16.5 13.2 86 1.3 CALM 0 2 0 1 1021.7 1021.5 0.0
19/03:00am 15.7 16.2 12.8 83 1.6 WNW 2 4 1 2 1021.8 1021.6 0.0
19/02:30am 15.5 15.4 12.1 80 1.9 WNW 4 4 2 2 1022.0 1021.8 0.0
19/02:00am 14.6 14.8 11.9 84 1.5 NW 2 4 1 2 1022.3 1022.1 0.0
19/01:30am 15.3 14.0 11.3 77 2.1 NNE 9 9 5 5 1022.7 1022.5 0.0
19/01:00am 15.4 14.2 10.4 72 2.6 NE 7 9 4 5 1022.8 1022.6 0.0
19/12:30am 15.7 14.2 10.7 72 2.7 NE 9 11 5 6 1023.1 1022.9 0.0
19/12:00am 16.1 14.7 10.8 71 2.8 NE 9 11 5 6 1023.3 1023.1 0.0
 
Date/Time
EDT
Temp
°C
App
Temp
°C
Dew
Point
°C
Rel
Hum
%
Delta-T
°C
Wind Press
QNH
hPa
Press
MSL
hPa
Rain since
9am
mm
Dir  Spd
km/h
Gust
km/h
Spd
kts
Gust
kts
18/11:30pm 16.9 16.1 11.6 71 2.9 NE 7 9 4 5 1023.6 1023.3 0.0
18/11:00pm 16.6 15.6 10.9 69 3.0 ENE 7 11 4 6 1023.8 1023.6 0.0
18/10:30pm 17.0 15.8 11.5 70 3.0 ENE 9 9 5 5 1023.9 1023.7 0.0
18/10:00pm 17.0 15.7 11.3 69 3.1 ENE 9 13 5 7 1024.2 1024.0 0.0
18/09:30pm 17.1 15.7 10.9 67 3.3 ENE 9 11 5 6 1024.3 1024.1 0.0
18/09:00pm 16.9 15.3 10.1 64 3.6 ENE 9 11 5 6 1024.2 1024.0 0.0
18/08:30pm 17.2 16.1 10.6 65 3.5 ENE 7 11 4 6 1024.0 1023.8 0.0
18/08:00pm 17.2 16.1 10.6 65 3.5 E 7 11 4 6 1024.0 1023.8 0.0
18/07:30pm 17.4 15.8 10.1 62 3.9 E 9 15 5 8 1023.9 1023.7 0.0
18/07:00pm 17.8 16.2 10.2 61 4.0 E 9 15 5 8 1023.6 1023.3 0.0
18/06:30pm 18.2 16.2 10.3 60 4.2 E 11 17 6 9 1023.6 1023.3 0.0
18/06:00pm 18.8 17.0 10.9 60 4.3 E 11 17 6 9 1023.4 1023.2 0.0
18/05:30pm 18.4 15.7 10.3 59 4.3 ESE 15 19 8 10 1023.4 1023.2 0.0
18/05:00pm 18.9 16.2 10.2 57 4.7 ESE 15 22 8 12 1023.6 1023.3 0.0
18/04:30pm 19.0 16.0 9.2 53 5.2 ESE 15 20 8 11 1023.6 1023.3 0.0
18/04:00pm 18.7 15.2 8.9 53 5.1 ESE 17 24 9 13 1023.7 1023.4 0.0
18/03:30pm 19.1 15.9 9.9 55 4.9 ESE 17 22 9 12 1023.7 1023.4 0.0
18/03:00pm 18.8 16.2 9.3 54 5.0 ESE 13 22 7 12 1024.0 1023.8 0.0
18/02:30pm 18.8 16.3 9.6 55 4.9 ESE 13 22 7 12 1024.2 1024.0 0.0
18/02:00pm 18.6 15.9 9.1 54 5.0 SE 13 20 7 11 1024.5 1024.3 0.0
18/01:30pm 19.1 16.5 9.3 53 5.2 SE 13 22 7 12 1024.8 1024.6 0.0
18/01:00pm 19.3 16.7 9.2 52 5.3 SE 13 20 7 11 1024.8 1024.6 0.0
18/12:30pm 18.7 16.1 9.2 54 5.0 SE 13 20 7 11 1025.1 1024.9 0.0
18/12:00pm 19.2 16.3 9.7 54 5.0 SE 15 20 8 11 1025.2 1025.0 0.0
18/11:30am 18.9 16.3 9.4 54 5.0 SE 13 22 7 12 1025.4 1025.2 0.0
18/11:00am 19.0 17.1 10.6 58 4.5 SE 11 19 6 10 1025.4 1025.2 0.0
18/10:30am 19.1 17.0 9.9 55 4.9 SE 11 19 6 10 1025.3 1025.1 0.0
18/10:00am 18.8 16.6 9.3 54 5.0 SE 11 17 6 9 1025.2 1025.0 0.0
18/09:30am 18.6 16.6 8.6 52 5.2 SE 9 17 5 9 1025.1 1024.9 0.0
18/09:00am 18.3 16.4 9.1 55 4.8 SE 9 17 5 9 1025.1 1024.9 3.6
18/08:30am 17.7 15.7 8.8 56 4.6 SE 9 15 5 8 1024.9 1024.7 3.6
18/08:00am 17.7 15.6 9.6 59 4.3 SE 11 19 6 10 1024.5 1024.3 3.6
18/07:30am 17.4 15.0 8.8 57 4.5 ESE 11 19 6 10 1024.3 1024.1 3.6
18/07:00am 16.6 14.8 9.5 63 3.7 ESE 9 17 5 9 1024.1 1023.9 3.6
18/06:30am 16.7 14.9 9.4 62 3.8 SSE 9 15 5 8 1023.9 1023.7 3.6
18/06:00am 16.3 14.4 9.0 62 3.8 SE 9 15 5 8 1023.4 1023.2 3.6
18/05:30am 16.2 14.4 9.4 64 3.5 SSE 9 15 5 8 1023.2 1023.0 3.6
18/05:00am 16.2 14.0 9.4 64 3.5 SE 11 17 6 9 1023.0 1022.8 3.6
18/04:30am 16.3 14.3 10.2 67 3.2 SE 11 19 6 10 1023.2 1023.0 3.6
18/04:00am 16.4 13.7 9.1 62 3.8 SE 13 20 7 11 1023.3 1023.1 3.6
18/03:30am 16.4 13.9 9.6 64 3.6 SSE 13 19 7 10 1023.4 1023.2 3.6
18/03:00am 16.5 13.7 9.9 65 3.5 SE 15 20 8 11 1023.3 1023.1 3.6
18/02:30am 16.5 13.2 9.4 63 3.7 SE 17 26 9 14 1023.3 1023.1 3.6
18/02:00am 16.8 14.3 10.9 68 3.2 SSE 15 22 8 12 1023.4 1023.2 3.6
18/01:30am 16.8 14.1 10.4 66 3.4 SE 15 24 8 13 1023.7 1023.4 3.6
18/01:00am 17.0 14.2 11.3 69 3.1 SE 17 26 9 14 1023.9 1023.7 3.6
18/12:30am 17.3 15.2 11.3 68 3.3 ESE 13 24 7 13 1024.1 1023.9 3.6
18/12:00am 17.3 15.2 11.1 67 3.3 SE 13 22 7 12 1024.1 1023.9 3.6
 
Date/Time
EDT
Temp
°C
App
Temp
°C
Dew
Point
°C
Rel
Hum
%
Delta-T
°C
Wind Press
QNH
hPa
Press
MSL
hPa
Rain since
9am
mm
Dir  Spd
km/h
Gust
km/h
Spd
kts
Gust
kts
17/11:30pm 17.2 14.7 11.2 68 3.3 SE 15 22 8 12 1024.1 1023.9 3.6
17/11:00pm 17.2 15.1 11.2 68 3.2 SE 13 24 7 13 1024.0 1023.8 3.6
17/10:30pm 17.4 14.7 11.7 69 3.1 SE 17 26 9 14 1023.9 1023.7 3.6
17/10:00pm 17.3 16.0 12.4 73 2.7 SE 11 19 6 10 1024.0 1023.8 3.6
17/09:30pm 17.2 15.3 11.7 70 3.0 SE 13 24 7 13 1024.0 1023.8 3.6
17/09:00pm 17.5 15.7 12.0 70 3.0 SE 13 20 7 11 1023.6 1023.3 3.6
17/08:30pm 17.5 15.0 12.4 72 2.8 SSE 17 24 9 13 1023.3 1023.1 3.6
17/08:00pm 17.5 14.9 12.0 70 3.0 SSE 17 24 9 13 1023.0 1022.8 3.6
17/07:30pm 17.5 15.0 12.4 72 2.8 SSE 17 26 9 14 1022.6 1022.4 3.6
17/07:00pm 18.0 15.9 12.5 70 3.1 SSE 15 24 8 13 1022.3 1022.1 3.6
17/06:30pm 18.2 15.7 12.4 69 3.2 SSE 17 26 9 14 1021.8 1021.6 3.6
17/06:00pm 18.1 15.4 13.0 72 2.9 S 19 28 10 15 1021.5 1021.3 3.6
17/05:30pm 18.3 15.7 13.8 75 2.6 S 20 30 11 16 1021.5 1021.3 3.6
17/05:00pm 18.3 15.7 13.8 75 2.6 S 20 30 11 16 1021.3 1021.1 3.6
17/04:30pm 18.4 15.7 13.5 73 2.8 S 20 26 11 14 1021.2 1021.0 3.6
17/04:00pm 17.9 15.8 13.6 76 2.4 S 17 26 9 14 1021.2 1021.0 3.6
17/03:30pm 18.0 15.4 13.9 77 2.3 SSW 20 28 11 15 1021.1 1020.9 3.6
17/03:00pm 17.5 14.8 13.6 78 2.2 SSW 20 32 11 17 1021.3 1021.1 3.6
17/02:30pm 18.2 14.8 13.7 75 2.6 SSW 24 33 13 18 1021.3 1021.1 3.6
17/02:00pm 17.5 13.8 13.8 79 2.1 SSW 26 37 14 20 1021.1 1020.9 3.6
17/01:30pm 17.4 13.6 13.7 79 2.1 SSW 26 35 14 19 1021.1 1020.9 3.4
17/01:00pm 16.9 14.3 13.8 82 1.8 SSW 20 32 11 17 1021.2 1021.0 3.4
17/12:30pm 16.8 14.7 13.5 81 1.9 SSW 17 24 9 13 1021.1 1020.9 3.0
17/12:00pm 16.1 14.3 13.4 84 1.5 SSW 15 30 8 16 1021.2 1021.0 3.0
17/11:30am 16.0 14.4 14.0 88 1.1 SSW 15 26 8 14 1021.3 1021.1 3.0
17/11:00am 15.7 13.6 14.6 93 0.6 S 19 28 10 15 1021.2 1021.0 2.8
17/10:30am 16.0 13.2 14.2 89 1.0 S 22 35 12 19 1021.1 1020.9 1.2
17/10:00am 16.4 13.5 14.1 86 1.3 SSW 22 33 12 18 1020.1 1019.9 1.2
17/09:30am 16.0 13.3 14.7 92 0.7 SSW 22 35 12 19 1020.2 1020.0 0.4
17/09:00am 16.9 14.7 14.5 86 1.4 SSW 19 28 10 15 1020.2 1020.0 0.0
17/08:30am 17.0 15.5 14.1 83 1.7 SSW 15 24 8 13 1020.1 1019.9 0.0
17/08:00am 16.6 14.7 14.2 86 1.4 SSW 17 24 9 13 1019.7 1019.5 0.0
17/07:30am 16.9 14.5 13.8 82 1.8 SSW 19 26 10 14 1019.2 1019.0 0.0
17/07:00am 16.6 14.0 13.9 84 1.5 SSW 20 30 11 16 1018.8 1018.6 0.0
17/06:30am 16.6 15.4 15.1 91 0.9 SSW 15 24 8 13 1018.7 1018.5 0.0
17/06:00am 16.6 16.0 14.6 88 1.1 SSW 11 17 6 9 1018.5 1018.3 0.0
17/05:30am 15.8 15.2 13.6 87 1.2 SW 9 11 5 6 1018.4 1018.2 0.0
17/05:00am 15.9 15.3 13.4 85 1.4 SW 9 11 5 6 1018.1 1017.9 0.0
17/04:30am 16.0 15.1 12.7 81 1.8 WSW 9 11 5 6 1017.8 1017.6 0.0
17/04:00am 16.3 16.1 13.0 81 1.8 SW 6 7 3 4 1017.7 1017.5 0.0
17/03:30am 15.9 15.8 13.2 84 1.5 WSW 6 7 3 4 1017.9 1017.7 0.0
17/03:00am 15.9 15.8 13.4 85 1.4 WSW 6 7 3 4 1018.0 1017.8 0.0
17/02:30am 15.8 16.1 13.5 86 1.3 W 4 7 2 4 1018.2 1018.0 0.0
17/02:00am 15.6 15.3 13.4 87 1.2 WSW 7 7 4 4 1018.5 1018.3 0.0
17/01:30am 15.8 15.6 13.5 86 1.3 WSW 7 9 4 5 1018.7 1018.5 0.0
17/01:00am 15.9 15.9 13.6 86 1.3 WSW 6 7 3 4 1018.9 1018.7 0.0
17/12:30am 16.4 16.6 14.1 86 1.3 WSW 6 7 3 4 1019.2 1019.0 0.0
17/12:00am 16.4 16.4 13.7 84 1.5 SW 6 6 3 3 1019.4 1019.2 0.0
 
Date/Time
EDT
Temp
°C
App
Temp
°C
Dew
Point
°C
Rel
Hum
%
Delta-T
°C
Wind Press
QNH
hPa
Press
MSL
hPa
Rain since
9am
mm
Dir  Spd
km/h
Gust
km/h
Spd
kts
Gust
kts
16/11:30pm 16.2 16.7 13.9 86 1.3 SW 4 6 2 3 1019.5 1019.3 0.0
16/11:00pm 16.3 17.1 13.6 84 1.5 W 2 2 1 1 1019.4 1019.2 0.0
16/10:30pm 15.7 16.2 12.8 83 1.6 NW 2 4 1 2 1019.4 1019.2 0.0
16/10:00pm 15.7 15.8 12.8 83 1.6 N 4 6 2 3 1019.6 1019.4 0.0
16/09:30pm 15.7 15.7 12.5 81 1.8 NE 4 6 2 3 1019.4 1019.2 0.0
16/09:00pm 16.1 15.7 12.5 79 2.0 NE 6 7 3 4 1019.2 1019.0 0.0
16/08:30pm 16.6 16.7 12.8 78 2.1 ENE 4 6 2 3 1019.0 1018.8 0.0
16/08:00pm 16.8 16.4 12.5 76 2.4 ENE 6 7 3 4 1018.8 1018.6 0.0
16/07:30pm 16.9 16.7 13.0 78 2.2 ENE 6 9 3 5 1018.8 1018.6 0.0
16/07:00pm 17.9 17.7 13.0 73 2.8 E 6 9 3 5 1018.7 1018.5 0.0
16/06:30pm 18.6 18.7 13.9 74 2.7 ESE 6 7 3 4 1018.7 1018.5 0.0
16/06:00pm 18.3 18.1 13.6 74 2.7 ESE 7 11 4 6 1018.5 1018.3 0.0
16/05:30pm 18.4 18.5 13.9 75 2.6 SE 6 9 3 5 1018.6 1018.4 0.0
16/05:00pm 18.0 18.0 13.5 75 2.6 SSE 6 11 3 6 1018.9 1018.7 0.0
16/04:30pm 17.9 17.3 13.4 75 2.6 S 9 11 5 6 1019.1 1018.9 0.0
16/04:00pm 18.2 17.6 13.5 74 2.7 S 9 15 5 8 1019.2 1019.0 0.0

Other Formats:

Comma delimited format used in spreadsheet applications
http://www.bom.gov.au/fwo/IDN60801/IDN60801.95940.axf

JavaScript Object Notation format (JSON) in row-major order
http://www.bom.gov.au/fwo/IDN60801/IDN60801.95940.json